| time (UTC) | temp F | wind direction | speed MPH | gust MPH | rain 1hr in | rain 24hr in | rain mn in | humidity % | barometer mb |
| 20260510192349 | 57 | 303 | 5.0 | 7.0 | 0.00 | 0.00 | 0.00 | 35 | 1020.2 |
| 20260510191845 | 57 | 274 | 10.0 | 16.0 | 0.00 | 0.00 | 0.00 | 35 | 1020.5 |
| 20260510191341 | 57 | 304 | 4.0 | 5.0 | 0.00 | 0.00 | 0.00 | 35 | 1020.3 |
| 20260510190839 | 57 | 291 | 3.0 | 5.0 | 0.00 | 0.00 | 0.00 | 35 | 1020.3 |
| 20260510190336 | 57 | 300 | 2.0 | 3.0 | 0.00 | 0.00 | 0.00 | 35 | 1020.4 |
| 20260510185832 | 57 | 256 | 5.0 | 7.0 | 0.00 | 0.00 | 0.00 | 35 | 1020.4 |
| 20260510185330 | 57 | 323 | 5.0 | 6.0 | 0.00 | 0.00 | 0.00 | 35 | 1020.3 |
| 20260510184827 | 58 | 307 | 4.0 | 6.0 | 0.00 | 0.00 | 0.00 | 34 | 1020.4 |
| 20260510184324 | 58 | 266 | 4.0 | 5.0 | 0.00 | 0.00 | 0.00 | 35 | 1020.1 |
| 20260510183824 | 59 | 303 | 8.0 | 10.0 | 0.00 | 0.00 | 0.00 | 35 | 1020.3 |
| 20260510183320 | 58 | 315 | 4.0 | 6.0 | 0.00 | 0.00 | 0.00 | 34 | 1020.3 |
| 20260510182816 | 57 | 274 | 8.0 | 10.0 | 0.00 | 0.00 | 0.00 | 36 | 1020.1 |
| 20260510182313 | 56 | 325 | 5.0 | 6.0 | 0.00 | 0.00 | 0.00 | 38 | 1019.9 |
| 20260510181809 | 56 | 307 | 3.0 | 5.0 | 0.00 | 0.00 | 0.00 | 36 | 1020.1 |
| 20260510181306 | 55 | 277 | 2.0 | 3.0 | 0.00 | 0.00 | 0.00 | 37 | 1020.1 |
| 20260510180802 | 56 | 281 | 5.0 | 7.0 | 0.00 | 0.00 | 0.00 | 36 | 1020.1 |
| 20260510180259 | 57 | 291 | 4.0 | 7.0 | 0.00 | 0.00 | 0.00 | 36 | 1019.6 |
| 20260510175756 | 57 | 294 | 2.0 | 2.0 | 0.00 | 0.00 | 0.00 | 37 | 1019.8 |
| 20260510175251 | 57 | 286 | 5.0 | 6.0 | 0.00 | 0.00 | 0.00 | 37 | 1019.9 |
| 20260510174749 | 56 | 280 | 11.0 | 13.0 | 0.00 | 0.00 | 0.00 | 36 | 1020.1 |
| 20260510174246 | 55 | 297 | 6.0 | 9.0 | 0.00 | 0.00 | 0.00 | 35 | 1019.8 |
| 20260510173742 | 57 | 3 | 3.0 | 3.0 | 0.00 | 0.00 | 0.00 | 38 | 1019.8 |
| 20260510173238 | 57 | 280 | 4.0 | 5.0 | 0.00 | 0.00 | 0.00 | 36 | 1019.9 |
| 20260510172734 | 56 | 288 | 5.0 | 6.0 | 0.00 | 0.00 | 0.00 | 38 | 1020.1 |
| 20260510172230 | 57 | 281 | 4.0 | 6.0 | 0.00 | 0.00 | 0.00 | 40 | 1020.0 |
| 20260510171727 | 55 | 286 | 4.0 | 5.0 | 0.00 | 0.00 | 0.00 | 43 | 1019.9 |
| 20260510171224 | 56 | 260 | 6.0 | 7.0 | 0.00 | 0.00 | 0.00 | 38 | 1020.2 |
| 20260510170721 | 56 | 305 | 9.0 | 13.0 | 0.00 | 0.00 | 0.00 | 36 | 1020.1 |
| 20260510170217 | 55 | 263 | 5.0 | 7.0 | 0.00 | 0.00 | 0.00 | 41 | 1020.1 |
| 20260510165713 | 55 | 283 | 7.0 | 9.0 | 0.00 | 0.00 | 0.00 | 38 | 1020.2 |
| 20260510165209 | 55 | 295 | 5.0 | 7.0 | 0.00 | 0.00 | 0.00 | 36 | 1020.2 |
| 20260510164707 | 55 | 279 | 8.0 | 9.0 | 0.00 | 0.00 | 0.00 | 38 | 1020.1 |
| 20260510164204 | 55 | 290 | 6.0 | 10.0 | 0.00 | 0.00 | 0.00 | 38 | 1020.3 |
| 20260510163659 | 55 | 297 | 5.0 | 6.0 | 0.00 | 0.00 | 0.00 | 39 | 1020.2 |
| 20260510163155 | 55 | 277 | 3.0 | 6.0 | 0.00 | 0.00 | 0.00 | 39 | 1020.0 |
| 20260510162654 | 55 | 278 | 4.0 | 5.0 | 0.00 | 0.00 | 0.00 | 39 | 1020.1 |
| 20260510162152 | 55 | 294 | 11.0 | 13.0 | 0.00 | 0.00 | 0.00 | 38 | 1020.2 |
| 20260510161647 | 55 | 299 | 7.0 | 10.0 | 0.00 | 0.00 | 0.00 | 37 | 1020.1 |
| 20260510161144 | 55 | 284 | 5.0 | 7.0 | 0.00 | 0.00 | 0.00 | 40 | 1019.9 |
| 20260510160641 | 54 | 300 | 7.0 | 9.0 | 0.00 | 0.00 | 0.00 | 38 | 1020.1 |
| 20260510160136 | 54 | 316 | 5.0 | 9.0 | 0.00 | 0.00 | 0.00 | 40 | 1020.2 |
| 20260510155632 | 54 | 300 | 5.0 | 5.0 | 0.00 | 0.00 | 0.00 | 40 | 1020.2 |
| 20260510155128 | 54 | 300 | 5.0 | 6.0 | 0.00 | 0.00 | 0.00 | 41 | 1020.0 |
| 20260510154624 | 53 | 296 | 3.0 | 5.0 | 0.00 | 0.00 | 0.00 | 41 | 1020.1 |
| 20260510154120 | 54 | 302 | 4.0 | 6.0 | 0.00 | 0.00 | 0.00 | 40 | 1019.9 |
| 20260510153615 | 53 | 312 | 3.0 | 5.0 | 0.00 | 0.00 | 0.00 | 43 | 1020.0 |
| 20260510153112 | 53 | 299 | 6.0 | 7.0 | 0.00 | 0.00 | 0.00 | 42 | 1019.6 |
| 20260510152609 | 53 | 327 | 7.0 | 12.0 | 0.00 | 0.00 | 0.00 | 42 | 1019.6 |
| 20260510152105 | 53 | 302 | 4.0 | 6.0 | 0.00 | 0.00 | 0.00 | 42 | 1019.8 |
| 20260510151601 | 52 | 283 | 3.0 | 5.0 | 0.00 | 0.00 | 0.00 | 44 | 1019.8 |
| 20260510151100 | 53 | 336 | 2.0 | 3.0 | 0.00 | 0.00 | 0.00 | 44 | 1019.8 |
| 20260510150559 | 52 | 318 | 4.0 | 5.0 | 0.00 | 0.00 | 0.00 | 44 | 1019.8 |
| 20260510150055 | 53 | 284 | 7.0 | 10.0 | 0.00 | 0.00 | 0.00 | 44 | 1019.4 |
| 20260510145552 | 51 | 280 | 2.0 | 3.0 | 0.00 | 0.00 | 0.00 | 47 | 1019.5 |
| 20260510145049 | 51 | 292 | 7.0 | 9.0 | 0.00 | 0.00 | 0.00 | 46 | 1019.6 |
| 20260510144545 | 52 | 296 | 4.0 | 6.0 | 0.00 | 0.00 | 0.00 | 46 | 1019.2 |
| 20260510144041 | 51 | 282 | 3.0 | 3.0 | 0.00 | 0.00 | 0.00 | 45 | 1019.3 |
| 20260510143537 | 51 | 269 | 5.0 | 6.0 | 0.00 | 0.00 | 0.00 | 46 | 1019.4 |
| 20260510143034 | 52 | 323 | 3.0 | 3.0 | 0.00 | 0.00 | 0.00 | 44 | 1019.3 |
| 20260510142530 | 51 | 285 | 3.0 | 5.0 | 0.00 | 0.00 | 0.00 | 49 | 1019.1 |
| 20260510142027 | 50 | 312 | 6.0 | 7.0 | 0.00 | 0.00 | 0.00 | 46 | 1019.1 |
| 20260510141523 | 51 | 282 | 7.0 | 9.0 | 0.00 | 0.00 | 0.00 | 46 | 1019.0 |
| 20260510141021 | 50 | 291 | 3.0 | 5.0 | 0.00 | 0.00 | 0.00 | 46 | 1019.2 |
| 20260510140518 | 50 | 304 | 2.0 | 2.0 | 0.00 | 0.00 | 0.00 | 46 | 1019.2 |
| 20260510140017 | 50 | 299 | 7.0 | 7.0 | 0.00 | 0.00 | 0.00 | 47 | 1019.3 |
| 20260510135513 | 50 | 305 | 5.0 | 7.0 | 0.00 | 0.00 | 0.00 | 47 | 1018.9 |
| 20260510135010 | 50 | 268 | 5.0 | 6.0 | 0.00 | 0.00 | 0.00 | 47 | 1019.0 |
| 20260510134507 | 49 | 295 | 5.0 | 6.0 | 0.00 | 0.00 | 0.00 | 48 | 1019.0 |
| 20260510134004 | 49 | 284 | 2.0 | 3.0 | 0.00 | 0.00 | 0.00 | 46 | 1019.2 |
| 20260510133459 | 49 | 284 | 2.0 | 3.0 | 0.00 | 0.00 | 0.00 | 49 | 1019.2 |
| 20260510132955 | 50 | 283 | 5.0 | 6.0 | 0.00 | 0.00 | 0.00 | 48 | 1019.0 |
| 20260510132453 | 49 | 294 | 1.0 | 3.0 | 0.00 | 0.00 | 0.00 | 48 | 1018.9 |
| 20260510131949 | 48 | 328 | 2.0 | 3.0 | 0.00 | 0.00 | 0.00 | 49 | 1018.8 |
| 20260510131448 | 47 | 294 | 3.0 | 3.0 | 0.00 | 0.00 | 0.00 | 48 | 1018.7 |
| 20260510130944 | 47 | 286 | 0.0 | 2.0 | 0.00 | 0.00 | 0.00 | 49 | 1018.8 |
| 20260510130441 | 48 | 261 | 4.0 | 5.0 | 0.00 | 0.00 | 0.00 | 49 | 1018.8 |
| 20260510125938 | 47 | 288 | 2.0 | 3.0 | 0.00 | 0.00 | 0.00 | 50 | 1018.6 |
| 20260510125434 | 47 | 289 | 5.0 | 6.0 | 0.00 | 0.00 | 0.00 | 51 | 1018.5 |
| 20260510124931 | 46 | 304 | 0.0 | 0.0 | 0.00 | 0.00 | 0.00 | 55 | 1018.9 |
| 20260510124427 | 46 | 291 | 5.0 | 6.0 | 0.00 | 0.00 | 0.00 | 53 | 1018.6 |
| 20260510123924 | 46 | 310 | 1.0 | 2.0 | 0.00 | 0.00 | 0.00 | 55 | 1018.5 |
| 20260510123420 | 46 | 299 | 1.0 | 2.0 | 0.00 | 0.00 | 0.00 | 54 | 1018.6 |
| 20260510122916 | 46 | 287 | 2.0 | 3.0 | 0.00 | 0.00 | 0.00 | 56 | 1018.5 |
| 20260510122411 | 45 | 301 | 2.0 | 3.0 | 0.00 | 0.00 | 0.00 | 58 | 1018.4 |
| 20260510121907 | 45 | 301 | 1.0 | 2.0 | 0.00 | 0.00 | 0.00 | 58 | 1018.4 |
| 20260510121405 | 45 | 299 | 2.0 | 2.0 | 0.00 | 0.00 | 0.00 | 60 | 1018.4 |
| 20260510120902 | 44 | 310 | 1.0 | 2.0 | 0.00 | 0.00 | 0.00 | 63 | 1018.3 |
| 20260510120400 | 44 | 306 | 1.0 | 2.0 | 0.00 | 0.00 | 0.00 | 64 | 1018.3 |
| 20260510115855 | 44 | 290 | 0.0 | 0.0 | 0.00 | 0.00 | 0.00 | 65 | 1018.3 |
| 20260510115352 | 44 | 287 | 5.0 | 5.0 | 0.00 | 0.00 | 0.00 | 66 | 1018.1 |
| 20260510114848 | 43 | 289 | 1.0 | 2.0 | 0.00 | 0.00 | 0.00 | 68 | 1018.1 |
| 20260510114346 | 42 | 275 | 2.0 | 2.0 | 0.00 | 0.00 | 0.00 | 70 | 1017.9 |
| 20260510113846 | 41 | 289 | 0.0 | 2.0 | 0.00 | 0.00 | 0.00 | 74 | 1017.9 |
| 20260510113342 | 39 | 286 | 0.0 | 0.0 | 0.00 | 0.00 | 0.00 | 83 | 1017.9 |
| 20260510112839 | 39 | 289 | 0.0 | 0.0 | 0.00 | 0.00 | 0.00 | 88 | 1018.0 |
| 20260510112336 | 38 | 289 | 0.0 | 0.0 | 0.00 | 0.00 | 0.00 | 89 | 1017.7 |
| 20260510111832 | 38 | 289 | 0.0 | 0.0 | 0.00 | 0.00 | 0.00 | 89 | 1018.0 |
| 20260510111329 | 38 | 289 | 0.0 | 0.0 | 0.00 | 0.00 | 0.00 | 89 | 1017.6 |
| 20260510110828 | 37 | 289 | 0.0 | 0.0 | 0.00 | 0.00 | 0.00 | 88 | 1017.7 |
| 20260510110326 | 38 | 289 | 0.0 | 0.0 | 0.00 | 0.00 | 0.00 | 88 | 1017.6 |
| 20260510105822 | 37 | 289 | 0.0 | 0.0 | 0.00 | 0.00 | 0.00 | 90 | 1017.4 |
| 20260510105322 | 36 | 289 | 0.0 | 0.0 | 0.00 | 0.00 | 0.00 | 92 | 1017.2 |
| 20260510104818 | 34 | 289 | 0.0 | 0.0 | 0.00 | 0.00 | 0.00 | 92 | 1017.5 |
| 20260510104316 | 34 | 289 | 0.0 | 0.0 | 0.00 | 0.00 | 0.00 | 92 | 1017.3 |
| 20260510103812 | 34 | 289 | 0.0 | 0.0 | 0.00 | 0.00 | 0.00 | 92 | 1017.1 |
| 20260510103309 | 34 | 289 | 0.0 | 0.0 | 0.00 | 0.00 | 0.00 | 92 | 1016.9 |
| 20260510102804 | 34 | 289 | 0.0 | 0.0 | 0.00 | 0.00 | 0.00 | 92 | 1017.0 |
| 20260510102300 | 35 | 289 | 0.0 | 0.0 | 0.00 | 0.00 | 0.00 | 91 | 1017.0 |
| 20260510101757 | 35 | 289 | 0.0 | 0.0 | 0.00 | 0.00 | 0.00 | 91 | 1016.9 |
| 20260510101256 | 35 | 289 | 0.0 | 0.0 | 0.00 | 0.00 | 0.00 | 91 | 1016.9 |
| 20260510100751 | 35 | 289 | 0.0 | 0.0 | 0.00 | 0.00 | 0.00 | 91 | 1016.8 |
| 20260510100249 | 35 | 289 | 0.0 | 0.0 | 0.00 | 0.00 | 0.00 | 90 | 1016.5 |
| 20260510095744 | 35 | 289 | 0.0 | 0.0 | 0.00 | 0.00 | 0.00 | 89 | 1016.8 |
| 20260510095240 | 35 | 289 | 0.0 | 0.0 | 0.00 | 0.00 | 0.00 | 90 | 1016.5 |
| 20260510094738 | 35 | 289 | 0.0 | 0.0 | 0.00 | 0.00 | 0.00 | 89 | 1016.6 |
| 20260510094234 | 35 | 289 | 0.0 | 0.0 | 0.00 | 0.00 | 0.00 | 89 | 1016.5 |
| 20260510093730 | 35 | 289 | 0.0 | 0.0 | 0.00 | 0.00 | 0.00 | 87 | 1016.4 |
| 20260510093228 | 35 | 289 | 0.0 | 0.0 | 0.00 | 0.00 | 0.00 | 87 | 1016.4 |
| 20260510092724 | 35 | 289 | 0.0 | 0.0 | 0.00 | 0.00 | 0.00 | 86 | 1016.4 |
| 20260510092220 | 35 | 289 | 0.0 | 0.0 | 0.00 | 0.00 | 0.00 | 84 | 1016.4 |
| 20260510091716 | 35 | 289 | 0.0 | 0.0 | 0.00 | 0.00 | 0.00 | 84 | 1016.2 |
| 20260510091213 | 35 | 289 | 0.0 | 0.0 | 0.00 | 0.00 | 0.00 | 83 | 1016.1 |
| 20260510090709 | 36 | 289 | 0.0 | 0.0 | 0.00 | 0.00 | 0.00 | 83 | 1015.9 |
| 20260510090206 | 36 | 289 | 0.0 | 0.0 | 0.00 | 0.00 | 0.00 | 82 | 1015.8 |
| 20260510085701 | 37 | 289 | 0.0 | 0.0 | 0.00 | 0.00 | 0.00 | 82 | 1016.1 |
| 20260510085156 | 37 | 289 | 0.0 | 0.0 | 0.00 | 0.00 | 0.00 | 81 | 1016.0 |
| 20260510084653 | 37 | 289 | 0.0 | 0.0 | 0.00 | 0.00 | 0.00 | 81 | 1015.8 |
| 20260510084149 | 37 | 289 | 0.0 | 0.0 | 0.00 | 0.00 | 0.00 | 79 | 1015.7 |
| 20260510083646 | 38 | 289 | 0.0 | 0.0 | 0.00 | 0.00 | 0.00 | 78 | 1015.7 |
| 20260510083143 | 39 | 289 | 0.0 | 0.0 | 0.00 | 0.00 | 0.00 | 76 | 1015.7 |
| 20260510082639 | 39 | 289 | 0.0 | 0.0 | 0.00 | 0.00 | 0.00 | 75 | 1015.2 |
| 20260510082135 | 41 | 289 | 0.0 | 0.0 | 0.00 | 0.00 | 0.00 | 74 | 1015.2 |
| 20260510081630 | 41 | 286 | 0.0 | 0.0 | 0.00 | 0.00 | 0.00 | 71 | 1015.2 |
| 20260510081126 | 42 | 290 | 0.0 | 0.0 | 0.00 | 0.00 | 0.00 | 65 | 1015.2 |
| 20260510080625 | 42 | 290 | 0.0 | 0.0 | 0.00 | 0.00 | 0.00 | 64 | 1015.2 |
| 20260510080122 | 42 | 290 | 0.0 | 2.0 | 0.00 | 0.00 | 0.00 | 64 | 1015.1 |
| 20260510075620 | 43 | 290 | 0.0 | 0.0 | 0.00 | 0.00 | 0.00 | 62 | 1015.0 |
| 20260510075117 | 44 | 296 | 0.0 | 2.0 | 0.00 | 0.00 | 0.00 | 61 | 1015.0 |
| 20260510074613 | 44 | 312 | 2.0 | 3.0 | 0.00 | 0.00 | 0.00 | 61 | 1014.8 |
| 20260510074109 | 44 | 291 | 3.0 | 3.0 | 0.00 | 0.00 | 0.00 | 61 | 1014.6 |
| 20260510073559 | 44 | 291 | 0.0 | 0.0 | 0.00 | 0.00 | 0.00 | 62 | 1015.0 |
| 20260510073057 | 44 | 302 | 1.0 | 2.0 | 0.00 | 0.00 | 0.00 | 61 | 1014.7 |
| 20260510072553 | 44 | 297 | 2.0 | 3.0 | 0.00 | 0.00 | 0.00 | 61 | 1014.6 |
| 20260510072049 | 44 | 302 | 2.0 | 3.0 | 0.00 | 0.00 | 0.00 | 61 | 1014.5 |
| 20260510071545 | 44 | 290 | 3.0 | 3.0 | 0.00 | 0.00 | 0.00 | 61 | 1014.3 |
| 20260510071044 | 45 | 321 | 2.0 | 3.0 | 0.00 | 0.00 | 0.00 | 61 | 1014.3 |
| 20260510070540 | 44 | 289 | 0.0 | 2.0 | 0.00 | 0.00 | 0.00 | 61 | 1014.2 |
| 20260510070037 | 45 | 313 | 1.0 | 2.0 | 0.00 | 0.00 | 0.00 | 62 | 1014.3 |
| 20260510065533 | 45 | 303 | 3.0 | 5.0 | 0.00 | 0.00 | 0.00 | 62 | 1014.2 |
| 20260510065029 | 45 | 293 | 2.0 | 3.0 | 0.00 | 0.00 | 0.00 | 62 | 1014.1 |
| 20260510064526 | 45 | 304 | 0.0 | 2.0 | 0.00 | 0.00 | 0.00 | 62 | 1014.0 |
| 20260510064023 | 45 | 296 | 3.0 | 5.0 | 0.00 | 0.00 | 0.00 | 62 | 1013.8 |
| 20260510063520 | 45 | 304 | 2.0 | 3.0 | 0.00 | 0.00 | 0.00 | 62 | 1013.9 |
| 20260510063017 | 46 | 311 | 0.0 | 0.0 | 0.00 | 0.00 | 0.00 | 62 | 1013.7 |
| 20260510062512 | 46 | 292 | 1.0 | 2.0 | 0.00 | 0.00 | 0.00 | 62 | 1013.5 |
| 20260510062008 | 46 | 312 | 0.0 | 0.0 | 0.00 | 0.00 | 0.00 | 64 | 1013.6 |
| 20260510061505 | 45 | 303 | 0.0 | 0.0 | 0.00 | 0.00 | 0.00 | 65 | 1013.4 |
| 20260510061001 | 45 | 312 | 0.0 | 0.0 | 0.00 | 0.00 | 0.00 | 66 | 1013.5 |
| 20260510060458 | 45 | 309 | 0.0 | 0.0 | 0.00 | 0.00 | 0.00 | 67 | 1013.3 |
| 20260510055954 | 46 | 335 | 0.0 | 0.0 | 0.00 | 0.00 | 0.00 | 65 | 1013.4 |
| 20260510055450 | 46 | 335 | 0.0 | 0.0 | 0.00 | 0.00 | 0.00 | 64 | 1013.3 |
| 20260510054948 | 47 | 321 | 0.0 | 0.0 | 0.00 | 0.00 | 0.00 | 64 | 1013.1 |
| 20260510054443 | 47 | 325 | 2.0 | 2.0 | 0.00 | 0.00 | 0.00 | 64 | 1012.9 |
| 20260510053938 | 47 | 6 | 0.0 | 0.0 | 0.00 | 0.00 | 0.00 | 64 | 1013.0 |
| 20260510053434 | 48 | 7 | 0.0 | 0.0 | 0.00 | 0.00 | 0.00 | 63 | 1013.1 |
| 20260510052931 | 48 | 7 | 0.0 | 2.0 | 0.00 | 0.00 | 0.00 | 61 | 1013.0 |
| 20260510052426 | 49 | 249 | 2.0 | 3.0 | 0.00 | 0.00 | 0.00 | 61 | 1013.0 |
| 20260510051923 | 49 | 328 | 2.0 | 3.0 | 0.00 | 0.00 | 0.00 | 60 | 1012.7 |
| 20260510051420 | 49 | 348 | 3.0 | 5.0 | 0.00 | 0.00 | 0.00 | 59 | 1012.7 |
| 20260510050916 | 49 | 20 | 5.0 | 6.0 | 0.00 | 0.00 | 0.00 | 59 | 1012.9 |
| 20260510050413 | 49 | 296 | 4.0 | 5.0 | 0.00 | 0.00 | 0.00 | 59 | 1012.6 |
| 20260510045910 | 49 | 329 | 1.0 | 3.0 | 0.00 | 0.00 | 0.00 | 60 | 1012.6 |
| 20260510045407 | 49 | 314 | 2.0 | 3.0 | 0.00 | 0.00 | 0.00 | 61 | 1012.4 |
| 20260510044904 | 47 | 23 | 3.0 | 3.0 | 0.00 | 0.00 | 0.00 | 66 | 1012.3 |
| 20260510044401 | 47 | 322 | 0.0 | 0.0 | 0.00 | 0.00 | 0.00 | 70 | 1012.1 |
| 20260510043857 | 46 | 282 | 0.0 | 0.0 | 0.00 | 0.00 | 0.00 | 70 | 1012.1 |
| 20260510043353 | 46 | 327 | 0.0 | 0.0 | 0.00 | 0.00 | 0.00 | 71 | 1012.1 |
| 20260510042851 | 47 | 327 | 0.0 | 0.0 | 0.00 | 0.00 | 0.00 | 71 | 1011.9 |
| 20260510042347 | 48 | 327 | 0.0 | 0.0 | 0.00 | 0.00 | 0.00 | 69 | 1011.8 |
| 20260510041843 | 48 | 327 | 0.0 | 0.0 | 0.00 | 0.00 | 0.00 | 69 | 1011.3 |
| 20260510041340 | 48 | 327 | 0.0 | 0.0 | 0.00 | 0.00 | 0.00 | 67 | 1011.5 |
| 20260510040838 | 49 | 314 | 0.0 | 0.0 | 0.00 | 0.00 | 0.00 | 67 | 1011.4 |
| 20260510040334 | 49 | 338 | 0.0 | 0.0 | 0.00 | 0.00 | 0.00 | 68 | 1011.4 |
| 20260510035830 | 49 | 338 | 0.0 | 0.0 | 0.00 | 0.02 | 0.02 | 68 | 1011.2 |
| 20260510035326 | 50 | 338 | 0.0 | 0.0 | 0.00 | 0.02 | 0.02 | 65 | 1011.4 |
| 20260510034822 | 50 | 338 | 0.0 | 0.0 | 0.00 | 0.02 | 0.02 | 64 | 1011.1 |
| 20260510034320 | 50 | 336 | 0.0 | 0.0 | 0.00 | 0.02 | 0.02 | 64 | 1011.0 |
| 20260510033816 | 50 | 327 | 2.0 | 2.0 | 0.00 | 0.02 | 0.02 | 64 | 1010.9 |
| 20260510033313 | 51 | 320 | 0.0 | 0.0 | 0.00 | 0.02 | 0.02 | 64 | 1010.9 |
| 20260510032810 | 51 | 328 | 0.0 | 0.0 | 0.00 | 0.02 | 0.02 | 63 | 1010.8 |
| 20260510032306 | 52 | 328 | 0.0 | 0.0 | 0.00 | 0.02 | 0.02 | 60 | 1010.9 |
| 20260510031802 | 53 | 328 | 2.0 | 2.0 | 0.00 | 0.02 | 0.02 | 59 | 1010.7 |
| 20260510031257 | 53 | 356 | 0.0 | 2.0 | 0.00 | 0.02 | 0.02 | 58 | 1010.6 |
| 20260510030751 | 54 | 336 | 1.0 | 2.0 | 0.00 | 0.02 | 0.02 | 57 | 1010.4 |
| 20260510030249 | 54 | 29 | 0.0 | 2.0 | 0.00 | 0.02 | 0.02 | 56 | 1010.4 |
| 20260510025746 | 55 | 8 | 1.0 | 2.0 | 0.00 | 0.02 | 0.02 | 55 | 1010.4 |
| 20260510025244 | 55 | 317 | 0.0 | 2.0 | 0.00 | 0.02 | 0.02 | 53 | 1010.1 |
| 20260510024739 | 56 | 299 | 1.0 | 3.0 | 0.00 | 0.02 | 0.02 | 52 | 1009.9 |
| 20260510024236 | 56 | 313 | 1.0 | 2.0 | 0.00 | 0.02 | 0.02 | 52 | 1010.0 |
| 20260510023732 | 56 | 301 | 3.0 | 3.0 | 0.00 | 0.02 | 0.02 | 52 | 1010.1 |
| 20260510023224 | 57 | 301 | 2.0 | 2.0 | 0.00 | 0.02 | 0.02 | 52 | 1010.0 |
| 20260510022719 | 57 | 302 | 3.0 | 5.0 | 0.00 | 0.02 | 0.02 | 51 | 1009.9 |
| 20260510022214 | 57 | 301 | 3.0 | 5.0 | 0.00 | 0.02 | 0.02 | 51 | 1009.8 |
| 20260510021709 | 57 | 299 | 2.0 | 3.0 | 0.00 | 0.02 | 0.02 | 50 | 1009.9 |
| 20260510021207 | 58 | 304 | 6.0 | 7.0 | 0.00 | 0.02 | 0.02 | 50 | 1009.6 |
| 20260510020702 | 58 | 292 | 4.0 | 5.0 | 0.00 | 0.02 | 0.02 | 50 | 1009.4 |
| 20260510020202 | 58 | 277 | 5.0 | 6.0 | 0.00 | 0.02 | 0.02 | 49 | 1009.4 |
| 20260510015658 | 58 | 303 | 4.0 | 6.0 | 0.00 | 0.02 | 0.02 | 49 | 1009.2 |
| 20260510015155 | 58 | 302 | 7.0 | 9.0 | 0.00 | 0.02 | 0.02 | 48 | 1009.1 |
| 20260510014650 | 58 | 313 | 4.0 | 6.0 | 0.00 | 0.02 | 0.02 | 48 | 1008.9 |
| 20260510014148 | 58 | 309 | 5.0 | 7.0 | 0.00 | 0.02 | 0.02 | 48 | 1008.9 |
| 20260510013643 | 59 | 286 | 3.0 | 5.0 | 0.00 | 0.02 | 0.02 | 48 | 1008.6 |
| 20260510013139 | 58 | 292 | 4.0 | 6.0 | 0.00 | 0.02 | 0.02 | 48 | 1008.4 |
| 20260510012638 | 59 | 322 | 6.0 | 7.0 | 0.00 | 0.02 | 0.02 | 47 | 1008.3 |
| 20260510012134 | 59 | 320 | 0.0 | 2.0 | 0.00 | 0.02 | 0.02 | 47 | 1008.2 |
| 20260510011629 | 59 | 312 | 7.0 | 9.0 | 0.00 | 0.02 | 0.02 | 46 | 1007.7 |
| 20260510011125 | 59 | 304 | 6.0 | 7.0 | 0.00 | 0.02 | 0.02 | 45 | 1008.0 |
| 20260510010621 | 60 | 313 | 2.0 | 3.0 | 0.00 | 0.02 | 0.02 | 46 | 1008.0 |
| 20260510010119 | 60 | 25 | 4.0 | 5.0 | 0.00 | 0.02 | 0.02 | 45 | 1007.7 |
| 20260510005614 | 60 | 294 | 4.0 | 6.0 | 0.00 | 0.02 | 0.02 | 44 | 1007.4 |
| 20260510005112 | 61 | 251 | 4.0 | 5.0 | 0.00 | 0.02 | 0.02 | 43 | 1007.2 |
| 20260510004609 | 62 | 32 | 7.0 | 10.0 | 0.00 | 0.02 | 0.02 | 42 | 1007.2 |
| 20260510004107 | 62 | 315 | 5.0 | 6.0 | 0.00 | 0.02 | 0.02 | 42 | 1006.8 |
| 20260510003604 | 62 | 298 | 5.0 | 6.0 | 0.00 | 0.02 | 0.02 | 43 | 1006.8 |
| 20260510003100 | 63 | 278 | 6.0 | 7.0 | 0.00 | 0.02 | 0.02 | 42 | 1006.6 |
| 20260510002554 | 63 | 318 | 9.0 | 12.0 | 0.00 | 0.02 | 0.02 | 42 | 1006.6 |
| 20260510002052 | 63 | 293 | 7.0 | 9.0 | 0.00 | 0.02 | 0.02 | 42 | 1006.5 |
| 20260510001549 | 63 | 311 | 5.0 | 7.0 | 0.00 | 0.02 | 0.02 | 43 | 1006.5 |
| 20260510001048 | 63 | 310 | 4.0 | 6.0 | 0.00 | 0.02 | 0.02 | 43 | 1006.2 |
| 20260510000542 | 63 | 281 | 5.0 | 7.0 | 0.00 | 0.02 | 0.02 | 44 | 1006.2 |
| 20260510000039 | 63 | 270 | 8.0 | 9.0 | 0.00 | 0.02 | 0.02 | 44 | 1006.0 |
| 20260509235536 | 64 | 327 | 5.0 | 9.0 | 0.00 | 0.02 | 0.02 | 44 | 1005.8 |
| 20260509235033 | 64 | 279 | 3.0 | 5.0 | 0.00 | 0.02 | 0.02 | 46 | 1005.8 |
| 20260509234529 | 64 | 322 | 6.0 | 7.0 | 0.00 | 0.02 | 0.02 | 45 | 1005.9 |
| 20260509234027 | 64 | 302 | 3.0 | 3.0 | 0.00 | 0.02 | 0.02 | 45 | 1005.8 |
| 20260509233524 | 64 | 306 | 7.0 | 7.0 | 0.00 | 0.02 | 0.02 | 45 | 1005.5 |
| 20260509233021 | 64 | 282 | 9.0 | 10.0 | 0.00 | 0.02 | 0.02 | 44 | 1005.9 |
| 20260509232518 | 64 | 276 | 7.0 | 10.0 | 0.00 | 0.02 | 0.02 | 45 | 1005.4 |
| 20260509232015 | 64 | 271 | 5.0 | 6.0 | 0.00 | 0.02 | 0.02 | 45 | 1005.5 |
| 20260509231511 | 64 | 319 | 3.0 | 5.0 | 0.00 | 0.02 | 0.02 | 45 | 1005.5 |
| 20260509231009 | 64 | 270 | 7.0 | 10.0 | 0.00 | 0.02 | 0.02 | 44 | 1005.6 |
| 20260509230505 | 64 | 323 | 6.0 | 9.0 | 0.00 | 0.02 | 0.02 | 44 | 1005.4 |
| 20260509230002 | 64 | 273 | 9.0 | 13.0 | 0.00 | 0.02 | 0.02 | 43 | 1005.4 |
| 20260509225458 | 65 | 293 | 6.0 | 9.0 | 0.00 | 0.02 | 0.02 | 42 | 1005.4 |
| 20260509224954 | 65 | 289 | 9.0 | 10.0 | 0.00 | 0.02 | 0.02 | 43 | 1005.2 |
| 20260509224449 | 64 | 260 | 9.0 | 10.0 | 0.00 | 0.02 | 0.02 | 43 | 1005.2 |
| 20260509223946 | 65 | 280 | 11.0 | 13.0 | 0.00 | 0.02 | 0.02 | 42 | 1005.0 |
| 20260509223443 | 65 | 286 | 8.0 | 10.0 | 0.00 | 0.02 | 0.02 | 42 | 1005.2 |
| 20260509222941 | 66 | 294 | 7.0 | 10.0 | 0.00 | 0.02 | 0.02 | 42 | 1005.0 |
| 20260509222436 | 66 | 303 | 11.0 | 19.0 | 0.00 | 0.02 | 0.02 | 42 | 1005.1 |
| 20260509221932 | 66 | 302 | 4.0 | 6.0 | 0.00 | 0.02 | 0.02 | 42 | 1004.8 |
| 20260509221429 | 66 | 310 | 10.0 | 12.0 | 0.00 | 0.02 | 0.02 | 40 | 1004.8 |
| 20260509220924 | 68 | 286 | 14.0 | 17.0 | 0.00 | 0.02 | 0.02 | 39 | 1004.7 |
| 20260509220420 | 68 | 307 | 10.0 | 12.0 | 0.00 | 0.02 | 0.02 | 41 | 1004.5 |
| 20260509215917 | 67 | 268 | 9.0 | 10.0 | 0.00 | 0.02 | 0.02 | 41 | 1004.5 |
| 20260509215412 | 68 | 287 | 9.0 | 12.0 | 0.00 | 0.02 | 0.02 | 40 | 1004.4 |
| 20260509214910 | 68 | 305 | 14.0 | 19.0 | 0.00 | 0.02 | 0.02 | 39 | 1004.5 |
| 20260509214407 | 68 | 254 | 6.0 | 10.0 | 0.00 | 0.02 | 0.02 | 39 | 1004.3 |
| 20260509213904 | 68 | 280 | 13.0 | 19.0 | 0.00 | 0.02 | 0.02 | 39 | 1004.2 |
| 20260509213359 | 68 | 304 | 9.0 | 13.0 | 0.00 | 0.02 | 0.02 | 38 | 1004.2 |
| 20260509212857 | 68 | 288 | 7.0 | 9.0 | 0.00 | 0.02 | 0.02 | 40 | 1004.2 |
| 20260509212354 | 67 | 284 | 9.0 | 12.0 | 0.00 | 0.02 | 0.02 | 40 | 1004.1 |
| 20260509211850 | 67 | 315 | 17.0 | 20.0 | 0.00 | 0.02 | 0.02 | 41 | 1004.0 |
| 20260509211341 | 68 | 301 | 4.0 | 5.0 | 0.00 | 0.02 | 0.02 | 41 | 1003.8 |
| 20260509210837 | 66 | 276 | 5.0 | 6.0 | 0.00 | 0.02 | 0.02 | 44 | 1004.1 |
| 20260509210335 | 66 | 260 | 7.0 | 9.0 | 0.00 | 0.02 | 0.02 | 42 | 1003.9 |
| 20260509205834 | 66 | 274 | 6.0 | 9.0 | 0.00 | 0.02 | 0.02 | 43 | 1004.0 |
| 20260509205329 | 68 | 284 | 10.0 | 13.0 | 0.00 | 0.02 | 0.02 | 40 | 1004.0 |
| 20260509204826 | 67 | 272 | 11.0 | 15.0 | 0.00 | 0.02 | 0.02 | 42 | 1004.2 |
| 20260509204322 | 67 | 252 | 9.0 | 12.0 | 0.00 | 0.02 | 0.02 | 42 | 1003.9 |
| 20260509203819 | 67 | 270 | 5.0 | 6.0 | 0.00 | 0.02 | 0.02 | 45 | 1004.2 |
| 20260509203316 | 67 | 236 | 4.0 | 7.0 | 0.00 | 0.02 | 0.02 | 44 | 1003.9 |
| 20260509202812 | 67 | 255 | 7.0 | 12.0 | 0.00 | 0.02 | 0.02 | 45 | 1004.0 |
| 20260509202309 | 66 | 323 | 5.0 | 10.0 | 0.00 | 0.02 | 0.02 | 47 | 1004.3 |
| 20260509201807 | 66 | 251 | 5.0 | 7.0 | 0.00 | 0.02 | 0.02 | 47 | 1004.5 |
| 20260509201305 | 66 | 282 | 5.0 | 7.0 | 0.00 | 0.02 | 0.02 | 48 | 1004.5 |
| 20260509200801 | 65 | 288 | 3.0 | 3.0 | 0.00 | 0.02 | 0.02 | 48 | 1004.3 |
| 20260509200256 | 64 | 208 | 5.0 | 7.0 | 0.00 | 0.02 | 0.02 | 47 | 1004.5 |
| 20260509195752 | 63 | 282 | 3.0 | 3.0 | 0.00 | 0.02 | 0.02 | 50 | 1004.3 |
| 20260509195247 | 63 | 292 | 6.0 | 10.0 | 0.00 | 0.02 | 0.02 | 49 | 1004.6 |
| 20260509194742 | 63 | 339 | 6.0 | 9.0 | 0.00 | 0.02 | 0.02 | 50 | 1004.5 |
| 20260509194239 | 63 | 297 | 5.0 | 6.0 | 0.00 | 0.02 | 0.02 | 51 | 1005.0 |
| 20260509193736 | 63 | 306 | 5.0 | 6.0 | 0.00 | 0.02 | 0.02 | 50 | 1005.1 |
| 20260509193235 | 63 | 251 | 7.0 | 9.0 | 0.00 | 0.02 | 0.02 | 49 | 1005.1 |
| 20260509192732 | 64 | 278 | 6.0 | 7.0 | 0.00 | 0.02 | 0.02 | 50 | 1004.7 |